createdAt,value
2018-02-09T00:01:15.970Z,10.43
2018-02-09T00:03:43.495Z,9.97
2018-02-09T00:06:11.028Z,11.57
2018-02-09T00:08:38.593Z,10.23
2018-02-09T00:11:06.524Z,9.97
2018-02-09T00:13:34.114Z,10.13
2018-02-09T00:16:01.722Z,10.23
2018-02-09T00:18:29.310Z,10.13
2018-02-09T00:20:56.854Z,9.63
2018-02-09T00:23:24.415Z,10.73
2018-02-09T00:25:51.967Z,10.17
2018-02-09T00:28:19.497Z,10.17
2018-02-09T00:30:47.356Z,10.50
2018-02-09T00:33:14.889Z,10.30
2018-02-09T00:35:42.436Z,10.47
2018-02-09T00:38:09.962Z,9.40
2018-02-09T00:40:37.486Z,11.10
2018-02-09T00:43:05.033Z,10.20
2018-02-09T00:45:32.585Z,10.70
2018-02-09T00:48:00.106Z,9.27
2018-02-09T00:50:27.926Z,9.87
2018-02-09T00:52:55.495Z,9.50
2018-02-09T00:55:23.036Z,10.80
2018-02-09T00:57:50.639Z,10.20
2018-02-09T01:00:18.228Z,11.83
2018-02-09T01:02:46.041Z,10.53
2018-02-09T01:05:13.561Z,11.70
2018-02-09T01:07:41.124Z,10.20
2018-02-09T01:10:08.702Z,9.30
2018-02-09T01:12:36.205Z,9.00
2018-02-09T01:15:03.763Z,9.13
2018-02-09T01:17:31.302Z,8.67
2018-02-09T01:19:58.821Z,10.13
2018-02-09T01:22:26.724Z,9.13
2018-02-09T01:24:54.284Z,9.93
2018-02-09T01:27:21.799Z,9.43
2018-02-09T01:29:49.354Z,9.87
2018-02-09T01:32:17.026Z,9.20
2018-02-09T01:34:44.540Z,9.30
2018-02-09T01:37:12.075Z,9.43
2018-02-09T01:39:39.656Z,9.43
2018-02-09T01:42:07.195Z,9.57
2018-02-09T01:44:34.712Z,10.07
2018-02-09T01:47:02.268Z,8.60
2018-02-09T01:49:29.802Z,8.87
2018-02-09T01:51:57.337Z,9.97
2018-02-09T01:54:24.869Z,8.73
2018-02-09T01:56:52.437Z,9.27
2018-02-09T01:59:19.964Z,9.20
2018-02-09T02:01:47.524Z,9.40
2018-02-09T02:04:15.077Z,8.80
2018-02-09T02:06:42.605Z,9.20
2018-02-09T02:09:10.444Z,9.50
2018-02-09T02:11:37.954Z,9.20
2018-02-09T02:14:05.473Z,8.70
2018-02-09T02:16:32.998Z,9.13
2018-02-09T02:19:00.523Z,9.33
2018-02-09T02:21:28.061Z,9.60
2018-02-09T02:23:55.619Z,9.40
2018-02-09T02:26:23.146Z,9.47
2018-02-09T02:28:50.661Z,10.03
2018-02-09T02:31:18.189Z,8.90
2018-02-09T02:33:46.065Z,9.97
2018-02-09T02:36:13.598Z,9.63
2018-02-09T02:38:41.150Z,10.17
2018-02-09T02:41:08.681Z,10.30
2018-02-09T02:43:36.220Z,9.33
2018-02-09T02:46:03.776Z,9.67
2018-02-09T02:48:31.320Z,10.37
2018-02-09T02:50:58.880Z,9.90
2018-02-09T02:53:26.455Z,9.40
2018-02-09T02:55:53.979Z,9.90
2018-02-09T02:58:21.520Z,10.67
2018-02-09T03:00:49.106Z,9.47
2018-02-09T03:03:16.621Z,9.20
2018-02-09T03:05:44.149Z,9.67
2018-02-09T03:08:11.686Z,9.67
2018-02-09T03:10:39.211Z,9.70
2018-02-09T03:13:06.740Z,8.80
2018-02-09T03:15:34.520Z,9.70
2018-02-09T03:18:02.039Z,9.70
2018-02-09T03:20:29.583Z,11.07
2018-02-09T03:22:57.345Z,10.00
2018-02-09T03:25:25.211Z,10.67
2018-02-09T03:27:52.727Z,9.90
2018-02-09T03:30:20.282Z,10.07
2018-02-09T03:32:47.821Z,8.87
2018-02-09T03:35:15.341Z,10.27
2018-02-09T03:37:42.889Z,11.23
2018-02-09T03:40:10.674Z,11.10
2018-02-09T03:42:38.219Z,13.73
2018-02-09T03:45:05.766Z,13.17
2018-02-09T03:47:33.294Z,13.67
2018-02-09T03:50:00.823Z,11.40
2018-02-09T03:52:28.371Z,12.60
2018-02-09T03:54:55.901Z,10.67
2018-02-09T03:57:23.481Z,10.10
2018-02-09T03:59:51.026Z,9.80
2018-02-09T04:02:18.627Z,12.53
2018-02-09T04:04:46.163Z,11.60
2018-02-09T04:07:13.947Z,10.87
2018-02-09T04:09:41.812Z,11.70
2018-02-09T04:12:09.336Z,14.50
2018-02-09T04:14:37.194Z,10.77
2018-02-09T04:17:04.752Z,10.77
2018-02-09T04:19:32.338Z,10.20
2018-02-09T04:21:59.908Z,9.93
2018-02-09T04:24:27.441Z,9.97
2018-02-09T04:26:54.993Z,10.23
2018-02-09T04:29:22.498Z,8.50
2018-02-09T04:31:50.043Z,9.37
2018-02-09T04:34:17.576Z,9.07
2018-02-09T04:36:45.099Z,8.67
2018-02-09T04:39:12.633Z,10.53
2018-02-09T04:41:40.168Z,9.40
2018-02-09T04:44:07.709Z,8.87
2018-02-09T04:46:35.308Z,8.73
2018-02-09T04:49:02.827Z,8.60
2018-02-09T04:51:30.396Z,10.37
2018-02-09T04:53:58.192Z,9.60
2018-02-09T04:56:28.832Z,9.57
2018-02-09T04:58:56.368Z,10.00
2018-02-09T05:01:24.130Z,10.63
2018-02-09T05:03:51.696Z,10.33
2018-02-09T05:06:19.437Z,10.13
2018-02-09T05:08:47.008Z,11.47
2018-02-09T05:11:14.513Z,9.50
2018-02-09T05:13:42.034Z,9.50
2018-02-09T05:16:09.595Z,10.23
2018-02-09T05:18:37.126Z,9.67
2018-02-09T05:21:04.633Z,11.23
2018-02-09T05:23:32.211Z,10.23
2018-02-09T05:25:59.986Z,9.50
2018-02-09T05:28:27.511Z,9.10
2018-02-09T05:30:55.057Z,11.30
2018-02-09T05:33:22.580Z,17.10
2018-02-09T05:35:50.119Z,11.07
2018-02-09T05:38:17.692Z,9.93
2018-02-09T05:40:45.219Z,10.20
2018-02-09T05:43:12.746Z,13.03
2018-02-09T05:45:40.305Z,11.87
2018-02-09T05:48:07.835Z,11.13
2018-02-09T05:50:35.379Z,11.13
2018-02-09T05:53:02.945Z,10.90
2018-02-09T05:55:30.470Z,10.70
2018-02-09T05:57:57.991Z,10.23
2018-02-09T06:00:25.523Z,10.07
2018-02-09T06:02:53.038Z,9.40
2018-02-09T06:05:20.599Z,9.60
2018-02-09T06:07:48.150Z,9.40
2018-02-09T06:10:15.661Z,10.40
2018-02-09T06:12:43.184Z,10.10
2018-02-09T06:15:10.768Z,8.73
2018-02-09T06:17:38.303Z,11.67
2018-02-09T06:20:05.849Z,10.63
2018-02-09T06:22:33.392Z,10.37
2018-02-09T06:25:00.921Z,9.63
2018-02-09T06:27:28.443Z,9.23
2018-02-09T06:29:55.996Z,11.47
2018-02-09T06:32:23.582Z,10.03
2018-02-09T06:34:51.098Z,11.50
2018-02-09T06:37:18.623Z,8.63
2018-02-09T06:39:46.171Z,9.67
2018-02-09T06:42:13.688Z,11.90
2018-02-09T06:44:41.211Z,11.70
2018-02-09T06:47:08.749Z,10.47
2018-02-09T06:49:36.261Z,9.43
2018-02-09T06:52:03.782Z,9.73
2018-02-09T06:54:31.348Z,10.10
2018-02-09T06:56:58.866Z,10.83
2018-02-09T06:59:26.390Z,11.10
2018-02-09T07:01:53.941Z,10.90
2018-02-09T07:04:21.448Z,12.07
2018-02-09T07:06:48.975Z,10.00
2018-02-09T07:09:16.532Z,10.33
2018-02-09T07:11:44.060Z,10.43
2018-02-09T07:14:11.856Z,12.23
2018-02-09T07:16:39.530Z,11.70
2018-02-09T07:19:07.054Z,11.10
2018-02-09T07:21:34.612Z,11.20
2018-02-09T07:24:02.154Z,10.97
2018-02-09T07:26:29.684Z,11.13
2018-02-09T07:28:57.220Z,13.80
2018-02-09T07:31:24.804Z,12.17
2018-02-09T07:33:52.325Z,12.37
2018-02-09T07:36:19.874Z,13.00
2018-02-09T07:38:47.427Z,12.87
2018-02-09T07:41:14.929Z,9.97
2018-02-09T07:43:42.490Z,11.07
2018-02-09T07:46:10.120Z,10.33
2018-02-09T07:48:37.629Z,12.00
2018-02-09T07:51:05.139Z,11.73
2018-02-09T07:53:32.681Z,10.67
2018-02-09T07:56:00.215Z,10.93
2018-02-09T07:58:27.748Z,11.93
2018-02-09T08:00:55.312Z,10.70
2018-02-09T08:03:22.862Z,11.23
2018-02-09T08:05:50.460Z,10.20
2018-02-09T08:08:17.998Z,10.77
2018-02-09T08:10:45.520Z,11.20
2018-02-09T08:13:13.057Z,12.23
2018-02-09T08:15:40.617Z,11.30
2018-02-09T08:18:08.159Z,12.30
2018-02-09T08:20:35.664Z,11.27
2018-02-09T08:23:03.228Z,10.73
2018-02-09T08:25:30.738Z,11.67
2018-02-09T08:27:58.259Z,9.80
2018-02-09T08:30:25.816Z,9.50
2018-02-09T08:32:53.358Z,9.90
2018-02-09T08:35:20.986Z,9.67
2018-02-09T08:37:48.537Z,9.33
2018-02-09T08:40:16.078Z,9.10
2018-02-09T08:42:43.611Z,10.50
2018-02-09T08:45:11.184Z,10.17
2018-02-09T08:47:39.019Z,10.47
2018-02-09T08:50:06.545Z,9.77
2018-02-09T08:52:34.092Z,9.87
2018-02-09T08:55:01.619Z,8.80
2018-02-09T08:57:29.140Z,9.83
2018-02-09T08:59:56.688Z,8.80
2018-02-09T09:02:24.353Z,7.30
2018-02-09T09:04:51.873Z,8.17
2018-02-09T09:07:19.389Z,7.90
2018-02-09T09:09:46.947Z,8.03
2018-02-09T09:12:14.818Z,7.00
2018-02-09T09:14:42.382Z,8.07
2018-02-09T09:17:09.964Z,9.23
2018-02-09T09:19:37.473Z,8.10
2018-02-09T09:22:05.014Z,8.27
2018-02-09T09:24:32.578Z,9.80
2018-02-09T09:27:00.096Z,7.10
2018-02-09T09:29:27.638Z,7.20
2018-02-09T09:31:55.269Z,8.57
2018-02-09T09:34:22.758Z,7.70
2018-02-09T09:36:50.269Z,7.83
2018-02-09T09:39:17.817Z,8.60
2018-02-09T09:41:45.320Z,9.03
2018-02-09T09:44:13.146Z,9.87
2018-02-09T09:46:40.685Z,8.97
2018-02-09T09:49:08.470Z,9.00
2018-02-09T09:51:36.041Z,9.60
2018-02-09T09:54:03.562Z,8.40
2018-02-09T09:56:31.302Z,9.27
2018-02-09T09:58:58.817Z,8.73
2018-02-09T10:01:31.336Z,9.60
2018-02-09T10:03:58.854Z,8.73
2018-02-09T10:06:26.841Z,8.40
2018-02-09T10:08:54.385Z,7.80
2018-02-09T10:11:21.919Z,7.77
2018-02-09T10:13:49.516Z,8.83
2018-02-09T10:16:17.283Z,9.20
2018-02-09T10:18:44.800Z,7.60
2018-02-09T10:21:12.583Z,8.33
2018-02-09T10:23:40.105Z,7.67
2018-02-09T10:26:07.620Z,7.13
2018-02-09T10:28:35.125Z,7.57
2018-02-09T10:31:02.650Z,8.00
2018-02-09T10:33:30.153Z,7.73
2018-02-09T10:35:57.660Z,6.60
2018-02-09T10:38:25.625Z,6.00
2018-02-09T10:40:53.154Z,6.07
2018-02-09T10:43:20.675Z,6.37
2018-02-09T10:45:48.479Z,5.87
2018-02-09T10:48:16.026Z,6.30
2018-02-09T10:50:43.542Z,5.80
2018-02-09T10:53:11.085Z,5.17
2018-02-09T10:55:38.647Z,5.80
2018-02-09T10:58:06.153Z,8.50
2018-02-09T11:00:39.272Z,5.53
2018-02-09T11:03:06.796Z,5.40
2018-02-09T11:05:34.607Z,5.50
2018-02-09T11:08:02.514Z,5.63
2018-02-09T11:10:33.862Z,5.63
2018-02-09T11:13:06.938Z,6.13
2018-02-09T11:15:35.037Z,5.83
2018-02-09T11:18:02.623Z,5.47
2018-02-09T11:20:30.230Z,5.30
2018-02-09T11:22:57.983Z,5.07
2018-02-09T11:25:25.513Z,4.90
2018-02-09T11:27:53.049Z,4.53
2018-02-09T11:30:20.600Z,4.90
2018-02-09T11:32:48.105Z,5.30
2018-02-09T11:35:17.667Z,6.27
2018-02-09T11:37:45.209Z,5.27
2018-02-09T11:40:13.044Z,6.47
2018-02-09T11:42:40.548Z,6.20
2018-02-09T11:45:08.506Z,6.80
2018-02-09T11:47:36.013Z,6.20
2018-02-09T11:50:03.569Z,5.97
2018-02-09T11:52:32.056Z,5.90
2018-02-09T11:54:59.561Z,5.40
2018-02-09T11:57:27.329Z,6.20
2018-02-09T11:59:54.878Z,6.10
2018-02-09T12:02:22.438Z,5.93
2018-02-09T12:04:49.962Z,5.87
2018-02-09T12:07:17.479Z,6.20
2018-02-09T12:09:45.013Z,6.17
2018-02-09T12:12:12.518Z,5.90
2018-02-09T12:14:40.115Z,7.70
2018-02-09T12:17:07.653Z,6.50
2018-02-09T12:19:35.181Z,5.90
2018-02-09T12:22:02.712Z,6.57
2018-02-09T12:24:30.251Z,7.03
2018-02-09T12:26:57.770Z,6.13
2018-02-09T12:29:25.278Z,6.83
2018-02-09T12:31:52.840Z,6.33
2018-02-09T12:34:20.370Z,5.83
2018-02-09T12:36:47.886Z,5.80
2018-02-09T12:39:15.422Z,5.90
2018-02-09T12:41:42.944Z,6.70
2018-02-09T12:44:10.463Z,6.97
2018-02-09T12:46:38.058Z,6.20
2018-02-09T12:49:05.583Z,6.30
2018-02-09T12:51:33.085Z,6.70
2018-02-09T12:54:00.634Z,5.37
2018-02-09T12:56:28.152Z,5.07
2018-02-09T12:58:55.694Z,6.73
2018-02-09T13:01:23.268Z,5.60
2018-02-09T13:03:50.811Z,5.87
2018-02-09T13:06:18.334Z,6.53
2018-02-09T13:08:46.550Z,6.70
2018-02-09T13:11:14.058Z,6.13
2018-02-09T13:13:41.996Z,6.30
2018-02-09T13:16:13.418Z,7.20
2018-02-09T13:18:48.310Z,6.50
2018-02-09T13:21:15.904Z,7.20
2018-02-09T13:23:55.190Z,8.07
2018-02-09T13:26:24.952Z,7.00
2018-02-09T13:29:01.081Z,7.50
2018-02-09T13:31:28.622Z,7.20
2018-02-09T13:33:56.139Z,7.10
2018-02-09T13:36:35.527Z,6.73
2018-02-09T13:39:03.074Z,7.10
2018-02-09T13:41:30.920Z,7.93
2018-02-09T13:43:58.475Z,6.80
2018-02-09T13:46:25.977Z,6.30
2018-02-09T13:48:53.549Z,7.10
2018-02-09T13:51:21.289Z,8.03
2018-02-09T13:53:48.814Z,7.20
2018-02-09T13:56:17.217Z,9.13
2018-02-09T13:58:44.782Z,7.60
2018-02-09T14:01:12.456Z,6.87
2018-02-09T14:03:41.155Z,7.73
2018-02-09T14:06:08.726Z,7.80
2018-02-09T14:08:36.293Z,8.10
2018-02-09T14:11:03.833Z,7.80
2018-02-09T14:13:31.358Z,7.33
2018-02-09T14:15:59.215Z,7.90
2018-02-09T14:18:26.761Z,7.03
2018-02-09T14:20:55.164Z,10.20
2018-02-09T14:23:22.727Z,10.30
2018-02-09T14:25:50.246Z,8.03
2018-02-09T14:28:17.769Z,9.07
2018-02-09T14:30:45.320Z,8.80
2018-02-09T14:33:12.921Z,8.00
2018-02-09T14:35:40.486Z,9.20
2018-02-09T14:38:08.052Z,10.40
2018-02-09T14:40:35.576Z,8.80
2018-02-09T14:43:03.106Z,7.70
2018-02-09T14:45:30.961Z,8.37
2018-02-09T14:47:58.489Z,7.20
2018-02-09T14:50:26.018Z,9.33
2018-02-09T14:52:53.584Z,8.87
2018-02-09T14:55:21.397Z,8.17
2018-02-09T14:57:48.899Z,8.77
2018-02-09T15:00:16.549Z,9.10
2018-02-09T15:02:44.091Z,7.80
2018-02-09T15:05:11.630Z,7.97
2018-02-09T15:07:39.441Z,8.30
2018-02-09T15:10:06.994Z,9.30
2018-02-09T15:12:34.595Z,9.67
2018-02-09T15:15:02.179Z,10.20
2018-02-09T15:17:30.100Z,9.23
2018-02-09T15:19:57.630Z,9.17
2018-02-09T15:22:25.283Z,8.40
2018-02-09T15:24:52.842Z,9.00
2018-02-09T15:27:20.448Z,8.70
2018-02-09T15:29:48.019Z,10.43
2018-02-09T15:32:15.634Z,9.33
2018-02-09T15:34:43.282Z,8.00
2018-02-09T15:37:10.918Z,9.30
2018-02-09T15:39:38.445Z,9.60
2018-02-09T15:42:05.995Z,9.87
2018-02-09T15:44:33.561Z,9.30
2018-02-09T15:47:01.503Z,9.60
2018-02-09T15:49:29.403Z,9.57
2018-02-09T15:51:56.957Z,8.90
2018-02-09T15:54:24.545Z,9.90
2018-02-09T15:56:52.130Z,11.10
2018-02-09T15:59:19.637Z,10.17
2018-02-09T16:01:47.472Z,11.50
2018-02-09T16:04:15.260Z,11.60
2018-02-09T16:06:42.800Z,12.13
2018-02-09T16:09:10.379Z,10.60
2018-02-09T16:11:37.921Z,12.77
2018-02-09T16:14:05.514Z,13.10
2018-02-09T16:16:33.063Z,12.67
2018-02-09T16:19:00.577Z,13.40
2018-02-09T16:21:28.323Z,12.80
2018-02-09T16:23:55.953Z,13.00
2018-02-09T16:26:23.541Z,14.90
2018-02-09T16:28:51.079Z,13.83
2018-02-09T16:31:18.625Z,14.77
2018-02-09T16:33:46.235Z,14.27
2018-02-09T16:36:14.008Z,14.93
2018-02-09T16:38:41.590Z,12.73
2018-02-09T16:41:09.132Z,14.43
2018-02-09T16:43:36.724Z,14.40
2018-02-09T16:46:04.261Z,12.93
2018-02-09T16:48:31.769Z,14.60
2018-02-09T16:50:59.542Z,15.17
2018-02-09T16:53:27.132Z,14.47
2018-02-09T16:55:54.659Z,15.63
2018-02-09T16:58:22.182Z,13.37
2018-02-09T17:00:49.892Z,13.30
2018-02-09T17:03:17.443Z,12.67
2018-02-09T17:05:44.971Z,13.00
2018-02-09T17:08:12.617Z,16.97
2018-02-09T17:10:40.168Z,15.33
2018-02-09T17:13:07.745Z,17.20
2018-02-09T17:15:35.334Z,19.83
2018-02-09T17:18:03.708Z,21.80
2018-02-09T17:20:31.221Z,17.67
2018-02-09T17:22:58.777Z,17.60
2018-02-09T17:25:26.337Z,19.10
2018-02-09T17:27:54.774Z,18.83
2018-02-09T17:30:22.363Z,22.37
2018-02-09T17:32:49.904Z,22.63
2018-02-09T17:35:17.508Z,21.33
2018-02-09T17:37:45.102Z,23.13
2018-02-09T17:40:12.640Z,22.33
2018-02-09T17:42:40.548Z,22.80
2018-02-09T17:45:08.157Z,22.13
2018-02-09T17:47:35.709Z,22.70
2018-02-09T17:50:03.319Z,22.60
2018-02-09T17:52:31.090Z,23.00
2018-02-09T17:54:58.655Z,20.20
2018-02-09T17:57:27.373Z,20.00
2018-02-09T17:59:54.925Z,21.50
2018-02-09T18:02:23.145Z,19.90
2018-02-09T18:04:50.882Z,19.37
2018-02-09T18:07:18.746Z,19.07
2018-02-09T18:09:46.424Z,21.57
2018-02-09T18:12:13.986Z,21.53
2018-02-09T18:14:41.593Z,23.00
2018-02-09T18:17:09.172Z,24.20
2018-02-09T18:19:36.842Z,26.83
2018-02-09T18:22:04.662Z,26.87
2018-02-09T18:24:32.247Z,26.10
2018-02-09T18:27:00.270Z,21.03
2018-02-09T18:29:27.881Z,21.23
2018-02-09T18:31:56.360Z,19.93
2018-02-09T18:34:24.114Z,22.23
2018-02-09T18:36:51.689Z,21.00
2018-02-09T18:39:19.390Z,21.67
2018-02-09T18:41:47.257Z,21.00
2018-02-09T18:44:15.118Z,26.17
2018-02-09T18:46:42.686Z,24.90
2018-02-09T18:49:10.212Z,26.17
2018-02-09T18:51:37.748Z,25.27
2018-02-09T18:54:06.067Z,27.20
2018-02-09T18:56:33.990Z,26.30
2018-02-09T18:59:02.429Z,28.00
2018-02-09T19:01:30.078Z,36.00
2018-02-09T19:03:57.890Z,36.27
2018-02-09T19:06:26.418Z,35.07
2018-02-09T19:08:54.773Z,42.80
2018-02-09T19:11:22.303Z,42.47
2018-02-09T19:13:52.547Z,40.83
2018-02-09T19:16:20.256Z,39.20
2018-02-09T19:18:49.034Z,39.07
2018-02-09T19:21:16.570Z,41.60
2018-02-09T19:23:44.129Z,37.17
2018-02-09T19:26:12.691Z,37.00
2018-02-09T19:28:40.222Z,35.83
2018-02-09T19:31:07.798Z,34.10
2018-02-09T19:33:35.932Z,37.43
2018-02-09T19:36:03.461Z,36.67
2018-02-09T19:38:31.122Z,37.43
2018-02-09T19:40:58.656Z,44.30
2018-02-09T19:43:26.198Z,61.27
2018-02-09T19:45:53.766Z,69.27
2018-02-09T19:48:22.144Z,61.47
2018-02-09T19:50:50.437Z,58.30
2018-02-09T19:53:18.087Z,54.90
2018-02-09T19:55:45.613Z,64.73
2018-02-09T19:58:13.204Z,58.90
2018-02-09T20:00:40.778Z,61.00
2018-02-09T20:03:08.359Z,70.13
2018-02-09T20:05:35.888Z,70.97
2018-02-09T20:08:03.967Z,67.87
2018-02-09T20:10:31.693Z,71.23
2018-02-09T20:13:01.323Z,83.70
2018-02-09T20:15:29.656Z,78.50
2018-02-09T20:17:57.188Z,77.37
2018-02-09T20:20:24.713Z,80.83
2018-02-09T20:22:52.382Z,82.00
2018-02-09T20:25:20.242Z,78.40
2018-02-09T20:27:48.094Z,78.63
2018-02-09T20:30:15.669Z,79.00
2018-02-09T20:32:43.253Z,79.30
2018-02-09T20:35:10.809Z,76.53
2018-02-09T20:37:38.395Z,74.63
2018-02-09T20:40:05.914Z,67.17
2018-02-09T20:42:33.715Z,65.37
2018-02-09T20:45:01.473Z,62.93
2018-02-09T20:47:28.989Z,63.77
2018-02-09T20:49:56.517Z,65.40
2018-02-09T20:52:24.062Z,68.67
2018-02-09T20:54:57.846Z,67.10
2018-02-09T20:57:25.406Z,72.47
2018-02-09T20:59:52.935Z,63.70
2018-02-09T21:02:22.324Z,69.60
2018-02-09T21:04:51.719Z,70.73
2018-02-09T21:07:19.342Z,71.87
2018-02-09T21:09:47.308Z,71.97
2018-02-09T21:12:14.824Z,69.37
2018-02-09T21:14:43.178Z,75.37
2018-02-09T21:17:10.736Z,77.37
2018-02-09T21:19:38.419Z,66.00
2018-02-09T21:22:05.953Z,59.57
2018-02-09T21:24:33.540Z,73.13
2018-02-09T21:27:01.073Z,72.63
2018-02-09T21:29:28.625Z,82.10
2018-02-09T21:31:56.344Z,73.80
2018-02-09T21:34:24.014Z,68.53
2018-02-09T21:36:51.540Z,72.07
2018-02-09T21:39:19.105Z,73.80
2018-02-09T21:41:46.744Z,94.20
2018-02-09T21:44:14.273Z,102.77
2018-02-09T21:46:41.860Z,97.03
2018-02-09T21:49:09.396Z,91.77
2018-02-09T21:51:36.940Z,78.97
2018-02-09T21:54:04.552Z,81.27
2018-02-09T21:56:32.104Z,85.37
2018-02-09T21:59:00.560Z,79.40
2018-02-09T22:01:29.725Z,89.47
2018-02-09T22:03:58.946Z,92.77
2018-02-09T22:06:27.456Z,94.03
2018-02-09T22:08:56.201Z,97.87
2018-02-09T22:11:23.792Z,99.10
2018-02-09T22:13:51.336Z,102.93
2018-02-09T22:16:18.910Z,94.47
2018-02-09T22:18:46.447Z,97.30
2018-02-09T22:21:13.980Z,98.47
2018-02-09T22:23:41.650Z,85.33
2018-02-09T22:26:09.182Z,76.03
2018-02-09T22:28:36.706Z,77.17
2018-02-09T22:31:04.595Z,82.00
2018-02-09T22:33:32.113Z,68.37
2018-02-09T22:35:59.646Z,67.60
2018-02-09T22:38:27.183Z,71.50
2018-02-09T22:40:54.707Z,83.67
2018-02-09T22:43:22.250Z,64.73
2018-02-09T22:45:49.785Z,68.07
2018-02-09T22:48:17.315Z,76.77
2018-02-09T22:50:44.838Z,75.93
2018-02-09T22:53:12.393Z,75.50
2018-02-09T22:55:40.205Z,80.47
2018-02-09T22:58:07.725Z,81.50
2018-02-09T23:00:35.273Z,60.10
2018-02-09T23:03:02.792Z,98.17
2018-02-09T23:05:30.327Z,163.53
2018-02-09T23:07:57.886Z,137.80
2018-02-09T23:10:25.428Z,131.33
2018-02-09T23:12:52.974Z,123.53
2018-02-09T23:15:20.514Z,75.37
2018-02-09T23:17:48.039Z,76.50
2018-02-09T23:20:15.576Z,68.33
2018-02-09T23:22:43.127Z,80.97
2018-02-09T23:25:10.650Z,83.90
2018-02-09T23:27:38.438Z,78.67
2018-02-09T23:30:06.785Z,100.43
2018-02-09T23:32:34.323Z,94.33
2018-02-09T23:35:01.851Z,111.40
2018-02-09T23:37:29.408Z,96.40
2018-02-09T23:39:56.947Z,94.03
2018-02-09T23:42:24.476Z,101.30
2018-02-09T23:44:52.041Z,94.00
2018-02-09T23:47:19.568Z,74.70
2018-02-09T23:49:47.104Z,82.77
2018-02-09T23:52:14.655Z,87.93
2018-02-09T23:54:42.213Z,98.87
2018-02-09T23:57:09.754Z,97.50
2018-02-09T23:59:37.566Z,98.00
